Observation data for Memphis on 07/04/2020      Previous  Date  Next       Current Mesonet Observations  Soil Data  Daily Summary Page  Observations in Plain Language
KMES 040500Z 09000KT 28/17 A3001 RMK A01 T02780168  RH  054%=      5-min Rain = 0
KMES 040505Z 07001KT 28/17 A3001 RMK A01 T02760165  RH  053%=      5-min Rain = 0
KMES 040510Z 08001KT 28/16 A3001 RMK A01 T02750163  RH  053%=      5-min Rain = 0
KMES 040515Z 10001KT 28/16 A3001 RMK A01 T02750162  RH  053%=      5-min Rain = 0
KMES 040520Z 08001KT 28/16 A3001 RMK A01 T02750162  RH  053%=      5-min Rain = 0
KMES 040525Z 06001KT 27/16 A3001 RMK A01 T02740164  RH  053%=      5-min Rain = 0
KMES 040530Z 36001KT 27/17 A3001 RMK A01 T02740165  RH  054%=      5-min Rain = 0
KMES 040535Z 34001KT 27/17 A3001 RMK A01 T02730167  RH  055%=      5-min Rain = 0
KMES 040540Z 33001KT 27/17 A3001 RMK A01 T02710169  RH  056%=      5-min Rain = 0
KMES 040545Z 33001KT 27/17 A3001 RMK A01 T02700171  RH  058%=      5-min Rain = 0
KMES 040550Z 02000KT 27/17 A3001 RMK A01 T02670170  RH  058%=      5-min Rain = 0
KMES 040555Z 02001KT 26/17 A3001 RMK A01 T02620169  RH  059%=      5-min Rain = 0
KMES 040600Z 05002KT 26/17 A3001 RMK A01 T02590170  RH  061%=      5-min Rain = 0
KMES 040605Z 06002KT 26/17 A3001 RMK A01 T02570170  RH  062%=      5-min Rain = 0
KMES 040610Z 08002KT 26/17 A3001 RMK A01 T02560172  RH  063%=      5-min Rain = 0
KMES 040615Z 11002KT 26/17 A3001 RMK A01 T02560171  RH  062%=      5-min Rain = 0
KMES 040620Z 13001KT 26/17 A3001 RMK A01 T02560169  RH  062%=      5-min Rain = 0
KMES 040625Z 15001KT 26/17 A30 RMK A01 T02590166  RH  059%=      5-min Rain = 0
KMES 040630Z 19001KT 26/17 A30 RMK A01 T02620169  RH  059%=      5-min Rain = 0
KMES 040635Z 26002KT 26/17 A30 RMK A01 T02590170  RH  061%=      5-min Rain = 0
KMES 040640Z 26002KT 26/17 A30 RMK A01 T02550169  RH  062%=      5-min Rain = 0
KMES 040645Z 23002KT 26/17 A30 RMK A01 T02570166  RH  060%=      5-min Rain = 0
KMES 040650Z 20001KT 26/17 A30 RMK A01 T02570168  RH  061%=      5-min Rain = 0
KMES 040655Z 20001KT 26/17 A30 RMK A01 T02550168  RH  062%=      5-min Rain = 0
KMES 040700Z 20002KT 25/17 A30 RMK A01 T02530167  RH  062%=      5-min Rain = 0
KMES 040705Z 20001KT 25/17 A30 RMK A01 T02520167  RH  062%=      5-min Rain = 0
KMES 040710Z 21001KT 25/17 A30 RMK A01 T02520167  RH  062%=      5-min Rain = 0
KMES 040715Z 22001KT 25/17 A30 RMK A01 T02520166  RH  062%=      5-min Rain = 0
KMES 040720Z 25001KT 26/17 A30 RMK A01 T02550168  RH  061%=      5-min Rain = 0
KMES 040725Z 24001KT 26/17 A30 RMK A01 T02570165  RH  060%=      5-min Rain = 0
KMES 040730Z 00000KT 26/17 A3001 RMK A01 T02550169  RH  062%=      5-min Rain = 0
KMES 040735Z 18000KT 25/17 A3001 RMK A01 T02490172  RH  066%=      5-min Rain = 0
KMES 040740Z 00000KT 25/17 A30 RMK A01 T02460172  RH  066%=      5-min Rain = 0
KMES 040745Z 29001KT 25/17 A30 RMK A01 T02450171  RH  066%=      5-min Rain = 0
KMES 040750Z 30002KT 25/17 A30 RMK A01 T02490170  RH  065%=      5-min Rain = 0
KMES 040755Z 32003KT 25/17 A30 RMK A01 T02520167  RH  062%=      5-min Rain = 0
KMES 040800Z 34006KT 25/17 A3001 RMK A01 T02520165  RH  062%=      5-min Rain = 0
KMES 040805Z 35008KT 25/16 A3001 RMK A01 T02530164  RH  061%=      5-min Rain = 0
KMES 040810Z 00010KT 26/16 A3001 RMK A01 T02560162  RH  059%=      5-min Rain = 0
KMES 040815Z 00009KT 26/16 A3001 RMK A01 T02570161  RH  058%=      5-min Rain = 0
KMES 040820Z 01008KT 26/16 A3001 RMK A01 T02580159  RH  057%=      5-min Rain = 0
KMES 040825Z 00007KT 26/16 A3001 RMK A01 T02600159  RH  056%=      5-min Rain = 0
KMES 040830Z 00007KT 26/16 A3001 RMK A01 T02640158  RH  055%=      5-min Rain = 0
KMES 040835Z 36008KT 27/16 A3002 RMK A01 T02710155  RH  051%=      5-min Rain = 0
KMES 040840Z 00006KT 27/16 A3002 RMK A01 T02740156  RH  051%=      5-min Rain = 0
KMES 040845Z 01007KT 27/16 A3002 RMK A01 T02730156  RH  051%=      5-min Rain = 0
KMES 040850Z 00007KT 27/16 A3002 RMK A01 T02730157  RH  051%=      5-min Rain = 0
KMES 040855Z 36007KT 27/16 A3002 RMK A01 T02720158  RH  052%=      5-min Rain = 0
KMES 040900Z 01007KT 27/16 A3002 RMK A01 T02710158  RH  052%=      5-min Rain = 0
KMES 040905Z 03005KT 27/16 A3002 RMK A01 T02690159  RH  053%=      5-min Rain = 0
KMES 040910Z 03006KT 27/16 A3002 RMK A01 T02700158  RH  053%=      5-min Rain = 0
KMES 040915Z 03004KT 27/16 A3002 RMK A01 T02710159  RH  053%=      5-min Rain = 0
KMES 040920Z 04004KT 27/16 A3001 RMK A01 T02700160  RH  053%=      5-min Rain = 0
KMES 040925Z 03003KT 27/16 A3001 RMK A01 T02680161  RH  054%=      5-min Rain = 0
KMES 040930Z 35004KT 27/16 A3002 RMK A01 T02650163  RH  056%=      5-min Rain = 0
KMES 040935Z 00006KT 26/16 A3002 RMK A01 T02640163  RH  056%=      5-min Rain = 0
KMES 040940Z 36006KT 26/16 A3002 RMK A01 T02640162  RH  056%=      5-min Rain = 0
KMES 040945Z 01007KT 27/16 A3002 RMK A01 T02650161  RH  055%=      5-min Rain = 0
KMES 040950Z 01007KT 27/16 A3002 RMK A01 T02650160  RH  055%=      5-min Rain = 0
KMES 040955Z 00007KT 26/16 A3002 RMK A01 T02630156  RH  054%=      5-min Rain = 0
KMES 041000Z 00005KT 26/16 A3002 RMK A01 T02620155  RH  054%=      5-min Rain = 0
KMES 041005Z 00004KT 26/15 A3002 RMK A01 T02610154  RH  054%=      5-min Rain = 0
KMES 041010Z 36002KT 26/15 A3002 RMK A01 T02610154  RH  054%=      5-min Rain = 0
KMES 041015Z 35002KT 26/15 A3002 RMK A01 T02600154  RH  055%=      5-min Rain = 0
KMES 041020Z 33002KT 26/16 A3002 RMK A01 T02590157  RH  056%=      5-min Rain = 0
KMES 041025Z 35002KT 26/16 A3002 RMK A01 T02580156  RH  056%=      5-min Rain = 0
KMES 041030Z 00002KT 26/16 A3002 RMK A01 T02580156  RH  056%=      5-min Rain = 0
KMES 041035Z 36003KT 26/16 A3002 RMK A01 T02580157  RH  056%=      5-min Rain = 0
KMES 041040Z 33004KT 26/16 A3002 RMK A01 T02560158  RH  057%=      5-min Rain = 0
KMES 041045Z 33005KT 25/16 A3002 RMK A01 T02540157  RH  058%=      5-min Rain = 0
KMES 041050Z 34004KT 25/16 A3002 RMK A01 T02530158  RH  058%=      5-min Rain = 0
KMES 041055Z 33004KT 25/16 A3001 RMK A01 T02520158  RH  058%=      5-min Rain = 0
KMES 041100Z 32004KT 25/16 A3001 RMK A01 T02520158  RH  058%=      5-min Rain = 0
KMES 041105Z 33004KT 25/16 A3001 RMK A01 T02510158  RH  059%=      5-min Rain = 0
KMES 041110Z 34003KT 25/16 A3001 RMK A01 T02490158  RH  060%=      5-min Rain = 0
KMES 041115Z 32003KT 25/16 A3001 RMK A01 T02460159  RH  061%=      5-min Rain = 0
KMES 041120Z 32004KT 25/16 A3001 RMK A01 T02450158  RH  061%=      5-min Rain = 0
KMES 041125Z 33004KT 24/16 A30 RMK A01 T02440158  RH  062%=      5-min Rain = 0
KMES 041130Z 33004KT 24/16 A30 RMK A01 T02430157  RH  062%=      5-min Rain = 0
KMES 041135Z 32003KT 24/16 A30 RMK A01 T02430157  RH  061%=      5-min Rain = 0
KMES 041140Z 27001KT 24/16 A30 RMK A01 T02430157  RH  061%=      5-min Rain = 0
KMES 041145Z 32002KT 24/16 A30 RMK A01 T02430156  RH  061%=      5-min Rain = 0
KMES 041150Z 31001KT 24/16 A30 RMK A01 T02440157  RH  061%=      5-min Rain = 0
KMES 041155Z 30001KT 25/16 A30 RMK A01 T02450158  RH  061%=      5-min Rain = 0
KMES 041200Z 32002KT 24/16 A30 RMK A01 T02440158  RH  061%=      5-min Rain = 0
KMES 041205Z 33003KT 24/16 A30 RMK A01 T02440157  RH  061%=      5-min Rain = 0
KMES 041210Z 33004KT 24/16 A30 RMK A01 T02440158  RH  061%=      5-min Rain = 0
KMES 041215Z 34003KT 24/16 A30 RMK A01 T02440160  RH  062%=      5-min Rain = 0
KMES 041220Z 34004KT 25/16 A30 RMK A01 T02460162  RH  062%=      5-min Rain = 0
KMES 041225Z 35004KT 25/16 A30 RMK A01 T02500161  RH  061%=      5-min Rain = 0
KMES 041230Z 35004KT 26/16 A30 RMK A01 T02570155  RH  056%=      5-min Rain = 0
KMES 041235Z 01005KT 26/15 A30 RMK A01 T02620154  RH  054%=      5-min Rain = 0
KMES 041240Z 01007KT 26/15 A3001 RMK A01 T02640152  RH  052%=      5-min Rain = 0
KMES 041245Z 00010KT 26/15 A3001 RMK A01 T02640145  RH  050%=      5-min Rain = 0
KMES 041250Z 36010KT 26/14 A3001 RMK A01 T02640141  RH  049%=      5-min Rain = 0
KMES 041255Z 00010KT 26/14 A3001 RMK A01 T02640139  RH  048%=      5-min Rain = 0
KMES 041300Z 00010KT 27/14 A3001 RMK A01 T02650139  RH  048%=      5-min Rain = 0
KMES 041305Z 00010KT 27/14 A3001 RMK A01 T02660141  RH  048%=      5-min Rain = 0
KMES 041310Z 36012KT 27/14 A3001 RMK A01 T02660141  RH  048%=      5-min Rain = 0
KMES 041315Z 36011KT 27/14 A3001 RMK A01 T02670143  RH  049%=      5-min Rain = 0
KMES 041320Z 00012G17KT 27/15 A3001 RMK A01 T02680145  RH  049%=      5-min Rain = 0
KMES 041325Z 00014KT 27/15 A3001 RMK A01 T02680147  RH  049%=      5-min Rain = 0
KMES 041330Z 01012KT 27/15 A3001 RMK A01 T02700149  RH  050%=      5-min Rain = 0
KMES 041335Z 01012G17KT 27/15 A3002 RMK A01 T02720151  RH  050%=      5-min Rain = 0
KMES 041340Z 01012G17KT 28/15 A3001 RMK A01 T02750154  RH  050%=      5-min Rain = 0
KMES 041345Z 01012KT 28/16 A3001 RMK A01 T02760157  RH  050%=      5-min Rain = 0
KMES 041350Z 01012G17KT 28/16 A3001 RMK A01 T02760159  RH  051%=      5-min Rain = 0
KMES 041355Z 01010KT 28/16 A3001 RMK A01 T02760161  RH  052%=      5-min Rain = 0
KMES 041400Z 02009KT 28/16 A3001 RMK A01 T02780162  RH  052%=      5-min Rain = 0
KMES 041405Z 01010KT 28/16 A3001 RMK A01 T02790163  RH  052%=      5-min Rain = 0
KMES 041410Z 01009KT 28/16 A3001 RMK A01 T02790163  RH  052%=      5-min Rain = 0
KMES 041415Z 02008KT 28/17 A3001 RMK A01 T02800165  RH  052%=      5-min Rain = 0
KMES 041420Z 01010KT 28/17 A3001 RMK A01 T02820165  RH  051%=      5-min Rain = 0
KMES 041425Z 02008KT 28/17 A3001 RMK A01 T02840165  RH  051%=      5-min Rain = 0
KMES 041430Z 03010KT 29/17 A3002 RMK A01 T02860166  RH  051%=      5-min Rain = 0
KMES 041435Z 02008KT 29/17 A3001 RMK A01 T02880167  RH  050%=      5-min Rain = 0
KMES 041440Z 01009KT 29/17 A3001 RMK A01 T02900167  RH  050%=      5-min Rain = 0
KMES 041445Z 01007KT 29/17 A3001 RMK A01 T02910168  RH  050%=      5-min Rain = 0
KMES 041450Z 02008KT 29/17 A3001 RMK A01 T02940168  RH  049%=      5-min Rain = 0
KMES 041455Z 03008KT 30/17 A3001 RMK A01 T02970168  RH  048%=      5-min Rain = 0
KMES 041500Z 02007KT 30/17 A3001 RMK A01 T02980169  RH  048%=      5-min Rain = 0
KMES 041505Z 00007KT 30/17 A3001 RMK A01 T02990169  RH  048%=      5-min Rain = 0
KMES 041510Z 00007KT 30/17 A3001 RMK A01 T03030171  RH  048%=      5-min Rain = 0
KMES 041515Z 01008KT 31/17 A3001 RMK A01 T03050170  RH  047%=      5-min Rain = 0
KMES 041520Z 01008KT 31/17 A3001 RMK A01 T03060170  RH  046%=      5-min Rain = 0
KMES 041525Z 01009KT 31/17 A3001 RMK A01 T03080168  RH  045%=      5-min Rain = 0
KMES 041530Z 02006KT 31/17 A3001 RMK A01 T03110168  RH  045%=      5-min Rain = 0
KMES 041535Z 01007KT 32/17 A3001 RMK A01 T03150169  RH  044%=      5-min Rain = 0
KMES 041540Z 04007KT 32/17 A3001 RMK A01 T03190166  RH  042%=      5-min Rain = 0
KMES 041545Z 03006KT 31/16 A3001 RMK A01 T03140163  RH  042%=      5-min Rain = 0
KMES 041550Z 03006KT 31/16 A3001 RMK A01 T03130161  RH  042%=      5-min Rain = 0
KMES 041555Z 04008KT 32/16 A3001 RMK A01 T03200164  RH  041%=      5-min Rain = 0
KMES 041600Z 05007KT 32/17 A3001 RMK A01 T03180167  RH  043%=      5-min Rain = 0
KMES 041605Z 04008KT 32/17 A3001 RMK A01 T03180167  RH  042%=      5-min Rain = 0
KMES 041610Z 02006KT 32/17 A3001 RMK A01 T03170169  RH  043%=      5-min Rain = 0
KMES 041615Z 04006KT 32/17 A3001 RMK A01 T03210168  RH  042%=      5-min Rain = 0
KMES 041620Z 07008KT 32/17 A3001 RMK A01 T03200167  RH  042%=      5-min Rain = 0
KMES 041625Z 07007KT 32/17 A3001 RMK A01 T03200172  RH  043%=      5-min Rain = 0
KMES 041630Z 05008KT 32/17 A3001 RMK A01 T03230174  RH  043%=      5-min Rain = 0
KMES 041635Z 07007KT 33/17 A3001 RMK A01 T03270173  RH  042%=      5-min Rain = 0
KMES 041640Z 05006KT 33/17 A3001 RMK A01 T03280169  RH  041%=      5-min Rain = 0
KMES 041645Z 05008KT 33/17 A3001 RMK A01 T03300167  RH  040%=      5-min Rain = 0
KMES 041650Z 05007KT 33/17 A3001 RMK A01 T03300165  RH  039%=      5-min Rain = 0
KMES 041655Z 06008KT 33/16 A3001 RMK A01 T03320164  RH  039%=      5-min Rain = 0
KMES 041700Z 06008KT 33/16 A3001 RMK A01 T03340161  RH  037%=      5-min Rain = 0
KMES 041705Z 05007KT 34/16 A3001 RMK A01 T03350159  RH  037%=      5-min Rain = 0
KMES 041710Z 05009KT 34/16 A3001 RMK A01 T03370158  RH  036%=      5-min Rain = 0
KMES 041715Z 04008G14KT 34/16 A3001 RMK A01 T03380156  RH  035%=      5-min Rain = 0
KMES 041720Z 06007G12KT 34/16 A3001 RMK A01 T03390158  RH  035%=      5-min Rain = 0
KMES 041725Z 06006KT 34/15 A3001 RMK A01 T03410154  RH  034%=      5-min Rain = 0
KMES 041730Z 05005G10KT 34/15 A3001 RMK A01 T03410153  RH  034%=      5-min Rain = 0
KMES 041735Z 03007G12KT 34/16 A3001 RMK A01 T03430158  RH  035%=      5-min Rain = 0
KMES 041740Z 05008G13KT 34/16 A3001 RMK A01 T03420158  RH  035%=      5-min Rain = 0
KMES 041745Z 04005G10KT 34/16 A3001 RMK A01 T03440156  RH  034%=      5-min Rain = 0
KMES 041750Z 07008G16KT 35/16 A3001 RMK A01 T03460157  RH  034%=      5-min Rain = 0
KMES 041755Z 08007KT 35/16 A3001 RMK A01 T03450157  RH  034%=      5-min Rain = 0
KMES 041800Z 11006G11KT 35/15 A3001 RMK A01 T03450154  RH  033%=      5-min Rain = 0
KMES 041805Z 11006KT 34/15 A30 RMK A01 T03420152  RH  033%=      5-min Rain = 0
KMES 041810Z 12007KT 34/15 A30 RMK A01 T03430154  RH  034%=      5-min Rain = 0
KMES 041815Z 09005G10KT 34/15 A30 RMK A01 T03440153  RH  033%=      5-min Rain = 0
KMES 041820Z 09007KT 35/15 A30 RMK A01 T03470153  RH  033%=      5-min Rain = 0
KMES 041825Z 07006KT 35/15 A30 RMK A01 T03490153  RH  032%=      5-min Rain = 0
KMES 041830Z 10004KT 35/15 A30 RMK A01 T03490153  RH  033%=      5-min Rain = 0
KMES 041835Z 11004G10KT 35/15 A30 RMK A01 T03500153  RH  032%=      5-min Rain = 0
KMES 041840Z 09006G11KT 35/15 A30 RMK A01 T03500152  RH  032%=      5-min Rain = 0
KMES 041845Z 08005G10KT 35/15 A30 RMK A01 T03530153  RH  032%=      5-min Rain = 0
KMES 041850Z 08004G9KT 35/15 A2999 RMK A01 T03530151  RH  031%=      5-min Rain = 0
KMES 041855Z 07007KT 35/15 A2999 RMK A01 T03530149  RH  031%=      5-min Rain = 0
KMES 041900Z 05006G12KT 35/15 A2999 RMK A01 T03540147  RH  030%=      5-min Rain = 0
KMES 041905Z 10004G10KT 36/15 A2999 RMK A01 T03550148  RH  030%=      5-min Rain = 0
KMES 041910Z 13006G13KT 36/15 A2999 RMK A01 T03570150  RH  030%=      5-min Rain = 0
KMES 041915Z 08007G15KT 36/15 A2998 RMK A01 T03580149  RH  030%=      5-min Rain = 0
KMES 041920Z 12008G13KT 36/15 A2998 RMK A01 T03550147  RH  030%=      5-min Rain = 0
KMES 041925Z 10008KT 35/15 A2998 RMK A01 T03500146  RH  031%=      5-min Rain = 0
KMES 041930Z 12007G15KT 35/15 A2998 RMK A01 T03540151  RH  031%=      5-min Rain = 0
KMES 041935Z 11009G17KT 36/15 A2997 RMK A01 T03590152  RH  030%=      5-min Rain = 0
KMES 041940Z 10008G15KT 36/16 A2997 RMK A01 T03620155  RH  031%=      5-min Rain = 0
KMES 041945Z 10008G14KT 36/15 A2997 RMK A01 T03640152  RH  030%=      5-min Rain = 0
KMES 041950Z 10007KT 36/15 A2997 RMK A01 T03610151  RH  030%=      5-min Rain = 0
KMES 041955Z 09012G18KT 36/15 A2996 RMK A01 T03610152  RH  030%=      5-min Rain = 0
KMES 042000Z 07009G14KT 36/15 A2996 RMK A01 T03590150  RH  030%=      5-min Rain = 0
KMES 042005Z 09008G13KT 36/15 A2996 RMK A01 T03620151  RH  030%=      5-min Rain = 0
KMES 042010Z 13008KT 36/15 A2995 RMK A01 T03600150  RH  030%=      5-min Rain = 0
KMES 042015Z 11006G12KT 36/15 A2995 RMK A01 T03620149  RH  030%=      5-min Rain = 0
KMES 042020Z 10004G9KT 36/15 A2994 RMK A01 T03630150  RH  029%=      5-min Rain = 0
KMES 042025Z 12007KT 36/15 A2994 RMK A01 T03600146  RH  029%=      5-min Rain = 0
KMES 042030Z 15003KT 35/14 A2994 RMK A01 T03540144  RH  030%=      5-min Rain = 0
KMES 042035Z 09008G13KT 36/15 A2994 RMK A01 T03560145  RH  030%=      5-min Rain = 0
KMES 042040Z 14004G9KT 36/14 A2994 RMK A01 T03550142  RH  029%=      5-min Rain = 0
KMES 042045Z 12006KT 36/14 A2994 RMK A01 T03590144  RH  029%=      5-min Rain = 0
KMES 042050Z 12008KT 36/15 A2993 RMK A01 T03630148  RH  029%=      5-min Rain = 0
KMES 042055Z 11007KT 36/15 A2993 RMK A01 T03640147  RH  029%=      5-min Rain = 0
KMES 042100Z 14007KT 36/15 A2993 RMK A01 T03640145  RH  029%=      5-min Rain = 0
KMES 042105Z 10006KT 36/15 A2993 RMK A01 T03630145  RH  029%=      5-min Rain = 0
KMES 042110Z 10004KT 37/14 A2993 RMK A01 T03650142  RH  028%=      5-min Rain = 0
KMES 042115Z 12003KT 36/14 A2993 RMK A01 T03630143  RH  028%=      5-min Rain = 0
KMES 042120Z 12007KT 36/14 A2993 RMK A01 T03610142  RH  028%=      5-min Rain = 0
KMES 042125Z 05002KT 36/14 A2993 RMK A01 T03580139  RH  028%=      5-min Rain = 0
KMES 042130Z 05008G27KT 36/14 A2993 RMK A01 T03580141  RH  029%=      5-min Rain = 0
KMES 042135Z 04017G25KT 33/18 A2994 RMK A01 T03300177  RH  042%=      5-min Rain = 0
KMES 042140Z 04020G26KT 31/18 A2994 RMK A01 T03130179  RH  047%=      5-min Rain = 0
KMES 042145Z 05019G27KT 31/17 A2994 RMK A01 T03070169  RH  046%=      5-min Rain = 0
KMES 042150Z 05021G30KT 30/17 A2994 RMK A01 T02980172  RH  049%=      5-min Rain = 0
KMES 042155Z 05018G25KT 29/18 A2995 RMK A01 T02920176  RH  052%=      5-min Rain = 0
KMES 042200Z 05018G25KT 29/18 A2995 RMK A01 T02860176  RH  054%=      5-min Rain = 0
KMES 042205Z 05014G22KT 28/18 A2995 RMK A01 T02820175  RH  055%=      5-min Rain = 0
KMES 042210Z 05015G23KT 28/18 A2994 RMK A01 T02800178  RH  057%=      5-min Rain = 0
KMES 042215Z 04013G18KT 28/18 A2994 RMK A01 T02770182  RH  059%=      5-min Rain = 0
KMES 042220Z 02012G17KT 28/18 A2993 RMK A01 T02770182  RH  059%=      5-min Rain = 0
KMES 042225Z 01014KT 28/19 A2993 RMK A01 T02760186  RH  061%=      5-min Rain = 0
KMES 042230Z 02008G14KT 27/19 A2995 RMK A01 T02710188  RH  064%=      5-min Rain = 0
KMES 042235Z 22014G22KT 27/19 A2999 RMK A01 T02720189  RH  064%=      5-min Rain = 0
KMES 042240Z 22019G28KT 26/20 A30 RMK A01 T02620195  RH  071%=      5-min Rain = 0
KMES 042245Z 22022G33KT 25/20 A3002 RMK A01 T02520200  RH  077%=      5-min Rain = 0
KMES 042250Z 20020G28KT 23/20 A3003 RMK A01 T02330204  RH  088%=      5-min Rain = 0.03
KMES 042255Z 18019G28KT 22/20 A3003 RMK A01 T02190195  RH  091%=      5-min Rain = 0.08
KMES 042300Z 17016G25KT 21/19 A3002 RMK A01 T02100185  RH  090%=      5-min Rain = 0.09
KMES 042305Z 17010G18KT 20/18 A3001 RMK A01 T02040181  RH  091%=      5-min Rain = 0.06
KMES 042310Z 15012G19KT 20/18 A30 RMK A01 T02030180  RH  092%=      5-min Rain = 0.01
KMES 042315Z 14008G14KT 20/18 A2999 RMK A01 T02030182  RH  093%=      5-min Rain = 0
KMES 042320Z 12005KT 20/18 A2997 RMK A01 T02040182  RH  092%=      5-min Rain = 0
KMES 042325Z 08003KT 21/19 A2996 RMK A01 T02060185  RH  093%=      5-min Rain = 0.01
KMES 042330Z 32002KT 21/19 A2996 RMK A01 T02080187  RH  093%=      5-min Rain = 0
KMES 042335Z 33003KT 21/19 A2995 RMK A01 T02110189  RH  092%=      5-min Rain = 0
KMES 042340Z 35004KT 22/19 A2995 RMK A01 T02150193  RH  092%=      5-min Rain = 0
KMES 042345Z 29003KT 22/19 A2994 RMK A01 T02170193  RH  091%=      5-min Rain = 0
KMES 042350Z 36004KT 22/20 A2994 RMK A01 T02190196  RH  092%=      5-min Rain = 0
KMES 042355Z 00004KT 22/20 A2994 RMK A01 T02200196  RH  091%=      5-min Rain = 0
KMES 050000Z 35005KT 22/20 A2994 RMK A01 T02220196  RH  090%=      5-min Rain = 0
KMES 050005Z 00004KT 22/19 A2994 RMK A01 T02230194  RH  089%=      5-min Rain = 0
KMES 050010Z 09003KT 23/20 A2994 RMK A01 T02250198  RH  090%=      5-min Rain = 0
KMES 050015Z 12004KT 23/20 A2994 RMK A01 T02280202  RH  091%=      5-min Rain = 0
KMES 050020Z 10005KT 23/20 A2994 RMK A01 T02300204  RH  090%=      5-min Rain = 0
KMES 050025Z 10006KT 23/20 A2994 RMK A01 T02320204  RH  089%=      5-min Rain = 0
KMES 050030Z 10004KT 23/20 A2993 RMK A01 T02340204  RH  088%=      5-min Rain = 0
KMES 050035Z 13004KT 24/21 A2993 RMK A01 T02380207  RH  088%=      5-min Rain = 0
KMES 050040Z 14005KT 24/21 A2993 RMK A01 T02400208  RH  087%=      5-min Rain = 0
KMES 050045Z 13005KT 24/21 A2993 RMK A01 T02420207  RH  086%=      5-min Rain = 0
KMES 050050Z 11004KT 24/21 A2993 RMK A01 T02420206  RH  085%=      5-min Rain = 0
KMES 050055Z 12004KT 24/21 A2994 RMK A01 T02430206  RH  085%=      5-min Rain = 0
KMES 050100Z 10003KT 24/21 A2994 RMK A01 T02440208  RH  085%=      5-min Rain = 0
KMES 050105Z 14002KT 24/21 A2994 RMK A01 T02440207  RH  085%=      5-min Rain = 0
KMES 050110Z 17003KT 24/21 A2994 RMK A01 T02440207  RH  085%=      5-min Rain = 0
KMES 050115Z 18001KT 24/21 A2994 RMK A01 T02440207  RH  085%=      5-min Rain = 0
KMES 050120Z 16003KT 24/21 A2994 RMK A01 T02440206  RH  085%=      5-min Rain = 0
KMES 050125Z 15002KT 24/21 A2995 RMK A01 T02440207  RH  085%=      5-min Rain = 0
KMES 050130Z 10001KT 24/21 A2995 RMK A01 T02430207  RH  085%=      5-min Rain = 0
KMES 050135Z 12001KT 24/21 A2995 RMK A01 T02430207  RH  086%=      5-min Rain = 0
KMES 050140Z 11001KT 24/21 A2996 RMK A01 T02420207  RH  086%=      5-min Rain = 0
KMES 050145Z 12001KT 24/21 A2996 RMK A01 T02420207  RH  086%=      5-min Rain = 0
KMES 050150Z 18001KT 24/21 A2996 RMK A01 T02420207  RH  086%=      5-min Rain = 0
KMES 050155Z 22002KT 24/21 A2996 RMK A01 T02430208  RH  086%=      5-min Rain = 0
KMES 050200Z 25001KT 24/21 A2997 RMK A01 T02430209  RH  086%=      5-min Rain = 0
KMES 050205Z 33002KT 24/21 A2997 RMK A01 T02430209  RH  086%=      5-min Rain = 0
KMES 050210Z 00003KT 24/21 A2996 RMK A01 T02430210  RH  087%=      5-min Rain = 0
KMES 050215Z 03001KT 24/21 A2996 RMK A01 T02430211  RH  087%=      5-min Rain = 0
KMES 050220Z 16000KT 24/21 A2996 RMK A01 T02420210  RH  087%=      5-min Rain = 0
KMES 050225Z 17001KT 24/21 A2996 RMK A01 T02420211  RH  088%=      5-min Rain = 0
KMES 050230Z 15001KT 24/21 A2997 RMK A01 T02420212  RH  088%=      5-min Rain = 0
KMES 050235Z 15000KT 24/21 A2996 RMK A01 T02400211  RH  089%=      5-min Rain = 0
KMES 050240Z 32001KT 24/21 A2996 RMK A01 T02400212  RH  089%=      5-min Rain = 0
KMES 050245Z 32000KT 24/21 A2996 RMK A01 T02410213  RH  090%=      5-min Rain = 0
KMES 050250Z 34002KT 24/22 A2996 RMK A01 T02420215  RH  090%=      5-min Rain = 0
KMES 050255Z 34002KT 24/21 A2996 RMK A01 T02410213  RH  090%=      5-min Rain = 0
KMES 050300Z 34000KT 24/21 A2996 RMK A01 T02390211  RH  090%=      5-min Rain = 0
KMES 050305Z 34001KT 24/21 A2995 RMK A01 T02380211  RH  090%=      5-min Rain = 0
KMES 050310Z 35002KT 24/21 A2996 RMK A01 T02390212  RH  090%=      5-min Rain = 0
KMES 050315Z 34004KT 24/21 A2996 RMK A01 T02400214  RH  091%=      5-min Rain = 0
KMES 050320Z 35005KT 24/21 A2995 RMK A01 T02390214  RH  091%=      5-min Rain = 0
KMES 050325Z 36004KT 24/22 A2995 RMK A01 T02400216  RH  092%=      5-min Rain = 0
KMES 050330Z 36004KT 24/22 A2995 RMK A01 T02380215  RH  092%=      5-min Rain = 0
KMES 050335Z 00004KT 24/21 A2995 RMK A01 T02370214  RH  093%=      5-min Rain = 0
KMES 050340Z 00004KT 24/21 A2995 RMK A01 T02360213  RH  093%=      5-min Rain = 0
KMES 050345Z 36003KT 24/21 A2995 RMK A01 T02350213  RH  093%=      5-min Rain = 0
KMES 050350Z 35002KT 24/21 A2995 RMK A01 T02350213  RH  093%=      5-min Rain = 0
KMES 050355Z 34004KT 23/21 A2995 RMK A01 T02340212  RH  093%=      5-min Rain = 0
KMES 050400Z 33003KT 23/21 A2995 RMK A01 T02330210  RH  093%=      5-min Rain = 0
KMES 050405Z 33003KT 23/21 A2995 RMK A01 T02320210  RH  093%=      5-min Rain = 0
KMES 050410Z 34003KT 23/21 A2995 RMK A01 T02320209  RH  093%=      5-min Rain = 0
KMES 050415Z 34003KT 23/21 A2995 RMK A01 T02320209  RH  093%=      5-min Rain = 0
KMES 050420Z 34004KT 23/21 A2995 RMK A01 T02310209  RH  093%=      5-min Rain = 0
KMES 050425Z 35004KT 23/21 A2995 RMK A01 T02300208  RH  093%=      5-min Rain = 0
KMES 050430Z 34004KT 23/21 A2996 RMK A01 T02290208  RH  093%=      5-min Rain = 0
KMES 050435Z 33004KT 23/21 A2996 RMK A01 T02290207  RH  093%=      5-min Rain = 0
KMES 050440Z 34004KT 23/21 A2996 RMK A01 T02270206  RH  093%=      5-min Rain = 0
KMES 050445Z 36004KT 23/21 A2996 RMK A01 T02280207  RH  093%=      5-min Rain = 0
KMES 050450Z 36005KT 23/21 A2996 RMK A01 T02290207  RH  093%=      5-min Rain = 0
KMES 050455Z 35005KT 23/21 A2996 RMK A01 T02290206  RH  093%=      5-min Rain = 0

Page generated in 0.0164 seconds.